sensor_id;sensor_type;location;lat;lon;timestamp;pressure;altitude;pressure_sealevel;temperature;humidity
31911;BME280;18457;52.432;16.914;2023-08-06T00:01:16;99642.50;;;17.36;100.00
31911;BME280;18457;52.432;16.914;2023-08-06T00:03:52;99651.00;;;17.23;100.00
31911;BME280;18457;52.432;16.914;2023-08-06T00:06:24;99656.41;;;17.35;100.00
31911;BME280;18457;52.432;16.914;2023-08-06T00:08:56;99641.61;;;17.36;100.00
31911;BME280;18457;52.432;16.914;2023-08-06T00:11:28;99623.75;;;17.41;100.00
31911;BME280;18457;52.432;16.914;2023-08-06T00:14:00;99622.87;;;17.46;100.00
31911;BME280;18457;52.432;16.914;2023-08-06T00:16:31;99625.79;;;17.40;100.00
31911;BME280;18457;52.432;16.914;2023-08-06T00:19:03;99624.98;;;17.36;100.00
31911;BME280;18457;52.432;16.914;2023-08-06T00:21:35;99624.00;;;17.31;100.00
31911;BME280;18457;52.432;16.914;2023-08-06T00:24:09;99620.75;;;17.34;100.00
31911;BME280;18457;52.432;16.914;2023-08-06T00:26:41;99614.98;;;17.38;100.00
31911;BME280;18457;52.432;16.914;2023-08-06T00:29:13;99611.48;;;17.33;100.00
31911;BME280;18457;52.432;16.914;2023-08-06T00:31:45;99604.20;;;17.30;100.00
31911;BME280;18457;52.432;16.914;2023-08-06T00:34:17;99597.70;;;17.25;100.00
31911;BME280;18457;52.432;16.914;2023-08-06T00:36:48;99593.27;;;17.18;100.00
31911;BME280;18457;52.432;16.914;2023-08-06T00:39:21;99588.57;;;17.12;100.00
31911;BME280;18457;52.432;16.914;2023-08-06T00:41:53;99586.06;;;17.11;100.00
31911;BME280;18457;52.432;16.914;2023-08-06T00:44:25;99577.91;;;17.21;100.00
31911;BME280;18457;52.432;16.914;2023-08-06T00:46:57;99572.36;;;17.22;100.00
31911;BME280;18457;52.432;16.914;2023-08-06T00:49:29;99569.80;;;17.31;100.00
31911;BME280;18457;52.432;16.914;2023-08-06T00:52:05;99564.11;;;17.28;100.00
31911;BME280;18457;52.432;16.914;2023-08-06T00:54:40;99550.77;;;17.34;100.00
31911;BME280;18457;52.432;16.914;2023-08-06T00:57:12;99538.33;;;17.40;100.00
31911;BME280;18457;52.432;16.914;2023-08-06T00:59:44;99535.23;;;17.26;100.00
31911;BME280;18457;52.432;16.914;2023-08-06T01:02:17;99533.50;;;17.16;100.00
31911;BME280;18457;52.432;16.914;2023-08-06T01:04:48;99527.77;;;17.20;100.00
31911;BME280;18457;52.432;16.914;2023-08-06T01:07:30;99520.23;;;17.24;100.00
31911;BME280;18457;52.432;16.914;2023-08-06T01:10:38;99506.94;;;17.21;100.00
31911;BME280;18457;52.432;16.914;2023-08-06T01:13:18;99493.89;;;17.17;100.00
31911;BME280;18457;52.432;16.914;2023-08-06T01:15:56;99489.72;;;17.13;100.00
31911;BME280;18457;52.432;16.914;2023-08-06T01:18:29;99480.31;;;17.23;100.00
31911;BME280;18457;52.432;16.914;2023-08-06T01:21:04;99475.89;;;17.29;100.00
31911;BME280;18457;52.432;16.914;2023-08-06T01:23:36;99472.54;;;17.35;100.00
31911;BME280;18457;52.432;16.914;2023-08-06T01:26:14;99469.45;;;17.38;100.00
31911;BME280;18457;52.432;16.914;2023-08-06T01:28:56;99466.21;;;17.37;100.00
31911;BME280;18457;52.432;16.914;2023-08-06T01:31:33;99463.02;;;17.28;100.00
31911;BME280;18457;52.432;16.914;2023-08-06T01:34:09;99452.85;;;17.11;100.00
31911;BME280;18457;52.432;16.914;2023-08-06T01:36:42;99449.16;;;17.19;100.00
31911;BME280;18457;52.432;16.914;2023-08-06T01:39:14;99441.98;;;17.23;100.00
31911;BME280;18457;52.432;16.914;2023-08-06T01:41:45;99444.06;;;17.33;100.00
31911;BME280;18457;52.432;16.914;2023-08-06T01:44:17;99444.33;;;17.23;100.00
31911;BME280;18457;52.432;16.914;2023-08-06T01:46:49;99439.77;;;17.20;100.00
31911;BME280;18457;52.432;16.914;2023-08-06T01:49:21;99433.66;;;17.16;100.00
31911;BME280;18457;52.432;16.914;2023-08-06T01:51:53;99424.70;;;17.19;100.00
31911;BME280;18457;52.432;16.914;2023-08-06T01:54:24;99416.67;;;17.25;100.00
31911;BME280;18457;52.432;16.914;2023-08-06T01:56:56;99411.77;;;17.27;100.00
31911;BME280;18457;52.432;16.914;2023-08-06T01:59:29;99411.96;;;17.27;100.00
31911;BME280;18457;52.432;16.914;2023-08-06T02:02:01;99411.77;;;17.27;100.00
31911;BME280;18457;52.432;16.914;2023-08-06T02:04:33;99402.26;;;17.33;100.00
31911;BME280;18457;52.432;16.914;2023-08-06T02:07:05;99395.64;;;17.28;100.00
31911;BME280;18457;52.432;16.914;2023-08-06T02:09:37;99382.95;;;17.27;100.00
31911;BME280;18457;52.432;16.914;2023-08-06T02:12:10;99370.91;;;17.27;100.00
31911;BME280;18457;52.432;16.914;2023-08-06T02:14:43;99356.46;;;17.27;100.00
31911;BME280;18457;52.432;16.914;2023-08-06T02:17:15;99347.95;;;17.26;100.00
31911;BME280;18457;52.432;16.914;2023-08-06T02:19:47;99346.86;;;17.28;100.00
31911;BME280;18457;52.432;16.914;2023-08-06T02:22:18;99346.04;;;17.24;100.00
31911;BME280;18457;52.432;16.914;2023-08-06T02:24:54;99343.60;;;17.23;100.00
31911;BME280;18457;52.432;16.914;2023-08-06T02:27:49;99339.22;;;17.23;100.00
31911;BME280;18457;52.432;16.914;2023-08-06T02:30:21;99334.73;;;17.03;100.00
31911;BME280;18457;52.432;16.914;2023-08-06T02:32:53;99321.20;;;17.01;100.00
31911;BME280;18457;52.432;16.914;2023-08-06T02:35:25;99311.66;;;16.94;100.00
31911;BME280;18457;52.432;16.914;2023-08-06T02:37:56;99308.70;;;16.94;100.00
31911;BME280;18457;52.432;16.914;2023-08-06T02:40:28;99301.47;;;16.88;100.00
31911;BME280;18457;52.432;16.914;2023-08-06T02:43:00;99294.45;;;16.81;100.00
31911;BME280;18457;52.432;16.914;2023-08-06T02:45:31;99290.02;;;16.87;100.00
31911;BME280;18457;52.432;16.914;2023-08-06T02:48:04;99281.72;;;17.02;100.00
31911;BME280;18457;52.432;16.914;2023-08-06T02:50:40;99275.91;;;17.15;100.00
31911;BME280;18457;52.432;16.914;2023-08-06T02:53:12;99278.23;;;17.07;100.00
31911;BME280;18457;52.432;16.914;2023-08-06T02:55:48;99264.02;;;17.10;100.00
31911;BME280;18457;52.432;16.914;2023-08-06T02:58:22;99255.52;;;17.09;100.00
31911;BME280;18457;52.432;16.914;2023-08-06T03:01:06;99246.80;;;17.05;100.00
31911;BME280;18457;52.432;16.914;2023-08-06T03:03:52;99235.11;;;17.13;100.00
31911;BME280;18457;52.432;16.914;2023-08-06T03:06:28;99228.91;;;17.21;100.00
31911;BME280;18457;52.432;16.914;2023-08-06T03:08:59;99226.75;;;17.18;100.00
31911;BME280;18457;52.432;16.914;2023-08-06T03:11:31;99220.02;;;17.07;100.00
31911;BME280;18457;52.432;16.914;2023-08-06T03:14:07;99216.37;;;17.00;100.00
31911;BME280;18457;52.432;16.914;2023-08-06T03:16:38;99207.02;;;17.08;100.00
31911;BME280;18457;52.432;16.914;2023-08-06T03:19:10;99200.39;;;17.16;100.00
31911;BME280;18457;52.432;16.914;2023-08-06T03:21:41;99188.39;;;17.16;100.00
31911;BME280;18457;52.432;16.914;2023-08-06T03:24:14;99183.95;;;17.12;100.00
31911;BME280;18457;52.432;16.914;2023-08-06T03:26:47;99176.23;;;17.05;100.00
31911;BME280;18457;52.432;16.914;2023-08-06T03:29:18;99174.14;;;17.01;100.00
31911;BME280;18457;52.432;16.914;2023-08-06T03:31:53;99167.69;;;17.04;100.00
31911;BME280;18457;52.432;16.914;2023-08-06T03:34:25;99165.66;;;17.02;100.00
31911;BME280;18457;52.432;16.914;2023-08-06T03:36:56;99153.05;;;17.00;100.00
31911;BME280;18457;52.432;16.914;2023-08-06T03:39:30;99143.96;;;17.02;100.00
31911;BME280;18457;52.432;16.914;2023-08-06T03:42:02;99137.61;;;16.91;100.00
31911;BME280;18457;52.432;16.914;2023-08-06T03:44:33;99130.25;;;17.00;100.00
31911;BME280;18457;52.432;16.914;2023-08-06T03:47:06;99128.01;;;17.03;100.00
31911;BME280;18457;52.432;16.914;2023-08-06T03:49:38;99119.42;;;16.98;100.00
31911;BME280;18457;52.432;16.914;2023-08-06T03:52:10;99095.15;;;16.90;100.00
31911;BME280;18457;52.432;16.914;2023-08-06T03:54:42;99095.13;;;16.91;100.00
31911;BME280;18457;52.432;16.914;2023-08-06T03:57:14;99104.22;;;16.96;100.00
31911;BME280;18457;52.432;16.914;2023-08-06T03:59:46;99105.38;;;16.93;100.00
31911;BME280;18457;52.432;16.914;2023-08-06T04:02:50;99113.16;;;17.04;100.00
31911;BME280;18457;52.432;16.914;2023-08-06T04:05:22;99109.64;;;16.97;100.00
31911;BME280;18457;52.432;16.914;2023-08-06T04:07:54;99114.25;;;16.84;100.00
31911;BME280;18457;52.432;16.914;2023-08-06T04:10:26;99110.35;;;16.82;100.00
31911;BME280;18457;52.432;16.914;2023-08-06T04:12:57;99113.21;;;16.78;100.00
31911;BME280;18457;52.432;16.914;2023-08-06T04:15:29;99116.96;;;16.81;100.00
31911;BME280;18457;52.432;16.914;2023-08-06T04:18:01;99117.86;;;16.79;100.00
31911;BME280;18457;52.432;16.914;2023-08-06T04:20:32;99120.21;;;16.72;100.00
31911;BME280;18457;52.432;16.914;2023-08-06T04:23:08;99109.06;;;16.75;100.00
31911;BME280;18457;52.432;16.914;2023-08-06T04:25:40;99091.98;;;16.84;100.00
31911;BME280;18457;52.432;16.914;2023-08-06T04:28:12;99084.69;;;16.73;100.00
31911;BME280;18457;52.432;16.914;2023-08-06T04:30:44;99079.90;;;16.77;100.00
31911;BME280;18457;52.432;16.914;2023-08-06T04:33:15;99078.36;;;16.73;100.00
31911;BME280;18457;52.432;16.914;2023-08-06T04:35:49;99081.92;;;16.69;100.00
31911;BME280;18457;52.432;16.914;2023-08-06T04:38:25;99079.22;;;16.55;100.00
31911;BME280;18457;52.432;16.914;2023-08-06T04:40:59;99078.94;;;16.51;100.00
31911;BME280;18457;52.432;16.914;2023-08-06T04:43:29;99085.54;;;16.58;100.00
31911;BME280;18457;52.432;16.914;2023-08-06T04:46:01;99097.40;;;16.50;100.00
31911;BME280;18457;52.432;16.914;2023-08-06T04:48:33;99101.70;;;16.52;100.00
31911;BME280;18457;52.432;16.914;2023-08-06T04:51:04;99111.23;;;16.48;100.00
31911;BME280;18457;52.432;16.914;2023-08-06T04:53:36;99121.49;;;16.45;100.00
31911;BME280;18457;52.432;16.914;2023-08-06T04:56:08;99135.70;;;16.61;100.00
31911;BME280;18457;52.432;16.914;2023-08-06T04:58:39;99140.44;;;16.64;100.00
31911;BME280;18457;52.432;16.914;2023-08-06T05:01:11;99141.78;;;16.68;100.00
31911;BME280;18457;52.432;16.914;2023-08-06T05:03:43;99132.95;;;16.58;100.00
31911;BME280;18457;52.432;16.914;2023-08-06T05:06:15;99122.46;;;16.44;100.00
31911;BME280;18457;52.432;16.914;2023-08-06T05:08:46;99118.80;;;16.41;100.00
31911;BME280;18457;52.432;16.914;2023-08-06T05:11:18;99117.04;;;16.40;100.00
31911;BME280;18457;52.432;16.914;2023-08-06T05:13:50;99123.73;;;16.33;100.00
31911;BME280;18457;52.432;16.914;2023-08-06T05:16:21;99122.73;;;16.24;100.00
31911;BME280;18457;52.432;16.914;2023-08-06T05:18:53;99118.79;;;16.23;100.00
31911;BME280;18457;52.432;16.914;2023-08-06T05:21:25;99112.95;;;16.15;100.00
31911;BME280;18457;52.432;16.914;2023-08-06T05:23:56;99111.24;;;16.19;100.00
31911;BME280;18457;52.432;16.914;2023-08-06T05:26:28;99088.41;;;16.14;100.00
31911;BME280;18457;52.432;16.914;2023-08-06T05:29:00;99070.96;;;16.14;100.00
31911;BME280;18457;52.432;16.914;2023-08-06T05:31:32;99068.04;;;16.14;100.00
31911;BME280;18457;52.432;16.914;2023-08-06T05:34:04;99071.11;;;16.11;100.00
31911;BME280;18457;52.432;16.914;2023-08-06T05:36:35;99060.27;;;16.07;100.00
31911;BME280;18457;52.432;16.914;2023-08-06T05:39:07;99055.86;;;16.00;100.00
31911;BME280;18457;52.432;16.914;2023-08-06T05:41:39;99053.32;;;16.03;100.00
31911;BME280;18457;52.432;16.914;2023-08-06T05:44:11;99049.71;;;15.97;100.00
31911;BME280;18457;52.432;16.914;2023-08-06T05:46:43;99049.54;;;16.02;100.00
31911;BME280;18457;52.432;16.914;2023-08-06T05:49:14;99053.23;;;16.01;100.00
31911;BME280;18457;52.432;16.914;2023-08-06T05:51:46;99056.27;;;16.05;100.00
31911;BME280;18457;52.432;16.914;2023-08-06T05:54:19;99059.74;;;16.07;100.00
31911;BME280;18457;52.432;16.914;2023-08-06T05:56:50;99070.46;;;16.02;100.00
31911;BME280;18457;52.432;16.914;2023-08-06T05:59:25;99075.55;;;16.02;100.00
31911;BME280;18457;52.432;16.914;2023-08-06T06:01:57;99072.95;;;15.98;100.00
31911;BME280;18457;52.432;16.914;2023-08-06T06:04:29;99066.27;;;15.97;100.00
31911;BME280;18457;52.432;16.914;2023-08-06T06:07:01;99055.05;;;15.96;100.00
31911;BME280;18457;52.432;16.914;2023-08-06T06:09:33;99047.73;;;15.97;100.00
31911;BME280;18457;52.432;16.914;2023-08-06T06:12:06;99033.39;;;15.91;100.00
31911;BME280;18457;52.432;16.914;2023-08-06T06:14:38;99016.96;;;15.88;100.00
31911;BME280;18457;52.432;16.914;2023-08-06T06:17:09;99028.34;;;15.90;100.00
31911;BME280;18457;52.432;16.914;2023-08-06T06:19:41;99035.00;;;15.88;100.00
31911;BME280;18457;52.432;16.914;2023-08-06T06:22:13;99029.73;;;15.93;100.00
31911;BME280;18457;52.432;16.914;2023-08-06T06:24:45;99021.75;;;15.96;100.00
31911;BME280;18457;52.432;16.914;2023-08-06T06:27:17;99010.54;;;15.89;100.00
31911;BME280;18457;52.432;16.914;2023-08-06T06:29:49;98999.60;;;15.87;100.00
31911;BME280;18457;52.432;16.914;2023-08-06T06:32:23;98993.55;;;15.87;100.00
31911;BME280;18457;52.432;16.914;2023-08-06T06:35:18;98990.21;;;15.88;100.00
31911;BME280;18457;52.432;16.914;2023-08-06T06:37:50;98979.13;;;15.88;100.00
31911;BME280;18457;52.432;16.914;2023-08-06T06:40:22;98967.35;;;15.87;100.00
31911;BME280;18457;52.432;16.914;2023-08-06T06:42:54;98955.84;;;15.85;100.00
31911;BME280;18457;52.432;16.914;2023-08-06T06:45:26;98950.76;;;15.87;100.00
31911;BME280;18457;52.432;16.914;2023-08-06T06:47:58;98941.41;;;15.85;100.00
31911;BME280;18457;52.432;16.914;2023-08-06T06:50:30;98944.64;;;15.84;100.00
31911;BME280;18457;52.432;16.914;2023-08-06T06:53:02;98951.31;;;15.90;100.00
31911;BME280;18457;52.432;16.914;2023-08-06T06:55:34;98954.44;;;15.84;100.00
31911;BME280;18457;52.432;16.914;2023-08-06T06:58:05;98958.08;;;15.87;100.00
31911;BME280;18457;52.432;16.914;2023-08-06T07:00:38;98955.04;;;15.94;100.00
31911;BME280;18457;52.432;16.914;2023-08-06T07:03:10;98952.27;;;15.97;100.00
31911;BME280;18457;52.432;16.914;2023-08-06T07:05:43;98944.23;;;16.00;100.00
31911;BME280;18457;52.432;16.914;2023-08-06T07:08:15;98943.37;;;16.04;100.00
31911;BME280;18457;52.432;16.914;2023-08-06T07:10:47;98938.90;;;16.00;100.00
31911;BME280;18457;52.432;16.914;2023-08-06T07:13:19;98928.58;;;15.97;100.00
31911;BME280;18457;52.432;16.914;2023-08-06T07:15:51;98921.27;;;15.92;100.00
31911;BME280;18457;52.432;16.914;2023-08-06T07:18:23;98905.29;;;15.91;100.00
31911;BME280;18457;52.432;16.914;2023-08-06T07:20:55;98903.33;;;15.98;100.00
31911;BME280;18457;52.432;16.914;2023-08-06T07:23:27;98902.58;;;15.96;100.00
31911;BME280;18457;52.432;16.914;2023-08-06T07:25:59;98901.67;;;15.94;100.00
31911;BME280;18457;52.432;16.914;2023-08-06T07:28:31;98904.09;;;15.96;100.00
31911;BME280;18457;52.432;16.914;2023-08-06T07:31:04;98905.52;;;15.96;100.00
31911;BME280;18457;52.432;16.914;2023-08-06T07:33:39;98906.71;;;15.94;100.00
31911;BME280;18457;52.432;16.914;2023-08-06T07:36:13;98897.83;;;15.91;100.00
31911;BME280;18457;52.432;16.914;2023-08-06T07:38:45;98897.88;;;15.88;100.00
31911;BME280;18457;52.432;16.914;2023-08-06T07:41:16;98903.06;;;15.87;100.00
31911;BME280;18457;52.432;16.914;2023-08-06T07:43:48;98902.40;;;15.88;100.00
31911;BME280;18457;52.432;16.914;2023-08-06T07:46:20;98900.89;;;15.89;100.00
31911;BME280;18457;52.432;16.914;2023-08-06T07:48:52;98896.48;;;15.87;100.00
31911;BME280;18457;52.432;16.914;2023-08-06T07:51:24;98900.23;;;15.91;100.00
31911;BME280;18457;52.432;16.914;2023-08-06T07:53:56;98898.67;;;15.92;100.00
31911;BME280;18457;52.432;16.914;2023-08-06T07:56:28;98892.50;;;15.95;100.00
31911;BME280;18457;52.432;16.914;2023-08-06T07:58:59;98891.16;;;15.93;100.00
31911;BME280;18457;52.432;16.914;2023-08-06T08:01:31;98892.76;;;15.88;100.00
31911;BME280;18457;52.432;16.914;2023-08-06T08:04:03;98894.02;;;15.89;100.00
31911;BME280;18457;52.432;16.914;2023-08-06T08:06:35;98886.20;;;15.88;100.00
31911;BME280;18457;52.432;16.914;2023-08-06T08:09:07;98882.23;;;15.93;100.00
31911;BME280;18457;52.432;16.914;2023-08-06T08:11:39;98882.77;;;15.96;100.00
31911;BME280;18457;52.432;16.914;2023-08-06T08:14:11;98879.72;;;15.95;100.00
31911;BME280;18457;52.432;16.914;2023-08-06T08:16:43;98876.70;;;15.91;100.00
31911;BME280;18457;52.432;16.914;2023-08-06T08:19:15;98879.12;;;15.96;100.00
31911;BME280;18457;52.432;16.914;2023-08-06T08:21:46;98888.70;;;15.97;100.00
31911;BME280;18457;52.432;16.914;2023-08-06T08:24:18;98893.20;;;15.95;100.00
31911;BME280;18457;52.432;16.914;2023-08-06T08:26:50;98892.98;;;16.00;100.00
31911;BME280;18457;52.432;16.914;2023-08-06T08:29:22;98899.95;;;16.05;100.00
31911;BME280;18457;52.432;16.914;2023-08-06T08:31:54;98903.19;;;16.03;100.00
31911;BME280;18457;52.432;16.914;2023-08-06T08:34:27;98890.48;;;16.02;100.00
31911;BME280;18457;52.432;16.914;2023-08-06T08:36:59;98880.40;;;16.08;100.00
31911;BME280;18457;52.432;16.914;2023-08-06T08:39:31;98869.04;;;15.99;100.00
31911;BME280;18457;52.432;16.914;2023-08-06T08:42:03;98866.02;;;16.01;100.00
31911;BME280;18457;52.432;16.914;2023-08-06T08:44:36;98858.81;;;16.02;100.00
31911;BME280;18457;52.432;16.914;2023-08-06T08:47:11;98843.02;;;16.04;100.00
31911;BME280;18457;52.432;16.914;2023-08-06T08:49:47;98825.39;;;15.96;100.00
31911;BME280;18457;52.432;16.914;2023-08-06T08:52:22;98821.21;;;15.95;100.00
31911;BME280;18457;52.432;16.914;2023-08-06T08:55:22;98812.66;;;15.96;100.00
31911;BME280;18457;52.432;16.914;2023-08-06T08:57:54;98804.25;;;16.01;100.00
31911;BME280;18457;52.432;16.914;2023-08-06T09:00:26;98798.77;;;16.04;100.00
31911;BME280;18457;52.432;16.914;2023-08-06T09:03:00;98800.51;;;16.02;100.00
31911;BME280;18457;52.432;16.914;2023-08-06T09:05:33;98799.73;;;16.05;100.00
31911;BME280;18457;52.432;16.914;2023-08-06T09:08:05;98801.83;;;16.07;100.00
31911;BME280;18457;52.432;16.914;2023-08-06T09:10:39;98805.33;;;16.11;100.00
31911;BME280;18457;52.432;16.914;2023-08-06T09:13:12;98804.08;;;16.03;100.00
31911;BME280;18457;52.432;16.914;2023-08-06T09:15:44;98804.78;;;16.04;100.00
31911;BME280;18457;52.432;16.914;2023-08-06T09:18:24;98800.87;;;16.02;100.00
31911;BME280;18457;52.432;16.914;2023-08-06T09:20:56;98797.04;;;16.00;100.00
31911;BME280;18457;52.432;16.914;2023-08-06T09:23:32;98795.41;;;16.02;100.00
31911;BME280;18457;52.432;16.914;2023-08-06T09:26:04;98789.77;;;16.04;100.00
31911;BME280;18457;52.432;16.914;2023-08-06T09:28:39;98786.36;;;16.04;100.00
31911;BME280;18457;52.432;16.914;2023-08-06T09:31:13;98776.02;;;16.08;100.00
31911;BME280;18457;52.432;16.914;2023-08-06T09:33:45;98764.16;;;16.11;100.00
31911;BME280;18457;52.432;16.914;2023-08-06T09:36:19;98747.94;;;16.04;100.00
31911;BME280;18457;52.432;16.914;2023-08-06T09:38:51;98726.39;;;16.09;100.00
31911;BME280;18457;52.432;16.914;2023-08-06T09:41:28;98717.04;;;16.03;100.00
31911;BME280;18457;52.432;16.914;2023-08-06T09:44:00;98718.82;;;16.01;100.00
31911;BME280;18457;52.432;16.914;2023-08-06T09:46:33;98723.35;;;16.01;100.00
31911;BME280;18457;52.432;16.914;2023-08-06T09:49:05;98716.61;;;16.06;100.00
31911;BME280;18457;52.432;16.914;2023-08-06T09:51:39;98714.67;;;16.10;100.00
31911;BME280;18457;52.432;16.914;2023-08-06T09:54:13;98719.05;;;16.10;100.00
31911;BME280;18457;52.432;16.914;2023-08-06T09:56:57;98717.29;;;16.16;100.00
31911;BME280;18457;52.432;16.914;2023-08-06T09:59:29;98720.82;;;16.13;100.00
31911;BME280;18457;52.432;16.914;2023-08-06T10:02:02;98723.94;;;16.13;100.00
31911;BME280;18457;52.432;16.914;2023-08-06T10:04:34;98718.41;;;16.16;100.00
31911;BME280;18457;52.432;16.914;2023-08-06T10:07:11;98709.39;;;16.10;100.00
31911;BME280;18457;52.432;16.914;2023-08-06T10:09:44;98701.31;;;16.23;100.00
31911;BME280;18457;52.432;16.914;2023-08-06T10:12:16;98683.23;;;16.16;100.00
31911;BME280;18457;52.432;16.914;2023-08-06T10:14:51;98675.69;;;16.12;100.00
31911;BME280;18457;52.432;16.914;2023-08-06T10:17:28;98689.39;;;16.17;100.00
31911;BME280;18457;52.432;16.914;2023-08-06T10:20:25;98710.52;;;16.17;100.00
31911;BME280;18457;52.432;16.914;2023-08-06T10:23:04;98709.89;;;16.11;100.00
31911;BME280;18457;52.432;16.914;2023-08-06T10:25:39;98680.45;;;16.07;100.00
31911;BME280;18457;52.432;16.914;2023-08-06T10:28:12;98650.05;;;16.04;100.00
31911;BME280;18457;52.432;16.914;2023-08-06T10:30:46;98662.12;;;16.04;100.00
31911;BME280;18457;52.432;16.914;2023-08-06T10:33:20;98690.96;;;16.05;100.00
31911;BME280;18457;52.432;16.914;2023-08-06T10:36:02;98708.37;;;16.11;100.00
31911;BME280;18457;52.432;16.914;2023-08-06T10:38:45;98698.33;;;16.14;100.00
31911;BME280;18457;52.432;16.914;2023-08-06T10:41:23;98674.94;;;16.15;100.00
31911;BME280;18457;52.432;16.914;2023-08-06T10:44:09;98672.04;;;16.17;100.00
31911;BME280;18457;52.432;16.914;2023-08-06T10:46:50;98666.27;;;16.09;100.00
31911;BME280;18457;52.432;16.914;2023-08-06T10:49:24;98662.61;;;16.09;100.00
31911;BME280;18457;52.432;16.914;2023-08-06T10:51:56;98664.39;;;16.05;100.00
31911;BME280;18457;52.432;16.914;2023-08-06T10:54:29;98654.64;;;16.06;100.00
31911;BME280;18457;52.432;16.914;2023-08-06T10:57:01;98645.15;;;16.07;100.00
31911;BME280;18457;52.432;16.914;2023-08-06T10:59:34;98647.19;;;16.11;100.00
31911;BME280;18457;52.432;16.914;2023-08-06T11:02:07;98631.69;;;16.07;100.00
31911;BME280;18457;52.432;16.914;2023-08-06T11:04:38;98634.67;;;16.08;100.00
31911;BME280;18457;52.432;16.914;2023-08-06T11:07:11;98646.66;;;16.06;100.00
31911;BME280;18457;52.432;16.914;2023-08-06T11:09:52;98655.13;;;16.10;100.00
31911;BME280;18457;52.432;16.914;2023-08-06T11:12:28;98642.79;;;16.11;100.00
31911;BME280;18457;52.432;16.914;2023-08-06T11:15:26;98643.27;;;16.17;100.00
31911;BME280;18457;52.432;16.914;2023-08-06T11:17:59;98657.97;;;16.18;100.00
31911;BME280;18457;52.432;16.914;2023-08-06T11:20:31;98682.08;;;16.12;100.00
31911;BME280;18457;52.432;16.914;2023-08-06T11:23:03;98696.20;;;16.13;100.00
31911;BME280;18457;52.432;16.914;2023-08-06T11:25:45;98701.70;;;16.18;100.00
31911;BME280;18457;52.432;16.914;2023-08-06T11:28:20;98698.92;;;16.21;100.00
31911;BME280;18457;52.432;16.914;2023-08-06T11:30:54;98676.58;;;16.22;100.00
31911;BME280;18457;52.432;16.914;2023-08-06T11:33:28;98649.79;;;16.13;100.00
31911;BME280;18457;52.432;16.914;2023-08-06T11:36:02;98614.77;;;16.02;100.00
31911;BME280;18457;52.432;16.914;2023-08-06T11:38:34;98579.07;;;16.04;100.00
31911;BME280;18457;52.432;16.914;2023-08-06T11:41:07;98569.10;;;16.05;100.00
31911;BME280;18457;52.432;16.914;2023-08-06T11:43:39;98612.09;;;16.15;100.00
31911;BME280;18457;52.432;16.914;2023-08-06T11:46:11;98653.25;;;16.25;100.00
31911;BME280;18457;52.432;16.914;2023-08-06T11:49:00;98670.66;;;16.31;100.00
31911;BME280;18457;52.432;16.914;2023-08-06T11:51:34;98675.67;;;16.22;100.00
31911;BME280;18457;52.432;16.914;2023-08-06T11:54:06;98678.41;;;16.27;100.00
31911;BME280;18457;52.432;16.914;2023-08-06T11:56:47;98686.61;;;16.32;100.00
31911;BME280;18457;52.432;16.914;2023-08-06T11:59:31;98702.39;;;16.40;100.00
31911;BME280;18457;52.432;16.914;2023-08-06T12:02:03;98707.16;;;16.49;100.00
31911;BME280;18457;52.432;16.914;2023-08-06T12:05:00;98699.85;;;16.47;100.00
31911;BME280;18457;52.432;16.914;2023-08-06T12:07:59;98690.71;;;16.45;100.00
31911;BME280;18457;52.432;16.914;2023-08-06T12:10:32;98691.23;;;16.45;100.00
31911;BME280;18457;52.432;16.914;2023-08-06T12:13:04;98692.16;;;16.36;100.00
31911;BME280;18457;52.432;16.914;2023-08-06T12:15:37;98689.20;;;16.36;100.00
31911;BME280;18457;52.432;16.914;2023-08-06T12:18:08;98684.58;;;16.35;100.00
31911;BME280;18457;52.432;16.914;2023-08-06T12:20:40;98680.98;;;16.36;100.00
31911;BME280;18457;52.432;16.914;2023-08-06T12:23:12;98662.04;;;16.38;100.00
31911;BME280;18457;52.432;16.914;2023-08-06T12:25:46;98629.56;;;16.44;100.00
31911;BME280;18457;52.432;16.914;2023-08-06T12:28:25;98604.98;;;16.43;100.00
31911;BME280;18457;52.432;16.914;2023-08-06T12:30:58;98604.44;;;16.39;100.00
31911;BME280;18457;52.432;16.914;2023-08-06T12:33:31;98610.75;;;16.37;100.00
31911;BME280;18457;52.432;16.914;2023-08-06T12:36:05;98609.20;;;16.38;100.00
31911;BME280;18457;52.432;16.914;2023-08-06T12:38:52;98607.39;;;16.41;100.00
31911;BME280;18457;52.432;16.914;2023-08-06T12:41:24;98594.38;;;16.53;100.00
31911;BME280;18457;52.432;16.914;2023-08-06T12:43:56;98575.77;;;16.59;100.00
31911;BME280;18457;52.432;16.914;2023-08-06T12:46:28;98567.11;;;16.55;100.00
31911;BME280;18457;52.432;16.914;2023-08-06T12:49:03;98573.70;;;16.64;100.00
31911;BME280;18457;52.432;16.914;2023-08-06T12:51:35;98581.23;;;16.56;100.00
31911;BME280;18457;52.432;16.914;2023-08-06T12:54:07;98589.31;;;16.60;100.00
31911;BME280;18457;52.432;16.914;2023-08-06T12:56:39;98592.88;;;16.59;100.00
31911;BME280;18457;52.432;16.914;2023-08-06T12:59:13;98589.18;;;16.52;100.00
31911;BME280;18457;52.432;16.914;2023-08-06T13:01:44;98591.94;;;16.52;100.00
31911;BME280;18457;52.432;16.914;2023-08-06T13:04:16;98579.85;;;16.50;100.00
31911;BME280;18457;52.432;16.914;2023-08-06T13:06:52;98568.81;;;16.52;100.00
31911;BME280;18457;52.432;16.914;2023-08-06T13:09:24;98573.73;;;16.52;100.00
31911;BME280;18457;52.432;16.914;2023-08-06T13:11:56;98571.77;;;16.49;100.00
31911;BME280;18457;52.432;16.914;2023-08-06T13:14:30;98567.36;;;16.49;100.00